Terminal Aerodrome Forecast
Issued by NWS Shreveport, LA

Home | Current Version | Previous Version | Text Only | Print | Product List | Glossary On
Versions: 1 2 3 4 5 6 7 8 9 10 11 12 13 14 15 16 17 18
213
FTUS44 KSHV 311730
TAFLFK
TAF
KLFK 311730Z 3118/0118 17004KT P6SM SCT040 SCT250
     FM010000 15003KT P6SM SCT050 SCT180 BKN250
      TEMPO 0109/0113 1SM BR BKN003
     FM011300 VRB03KT 3SM BR BKN005
     FM011500 15006KT P6SM SCT015 BKN150 BKN250=

USA.gov is the U.S. government's official web portal to all federal, state and local government web resources and services.